Buoy 53593

sailwx.info

Track history (hours):
 
Tides and Currents Weather Stations Pressure Air Temp Water Temp Dewpoint Dewpoint Depression Visibility Wind Speed Wind Dir Waves Ship Positions

Drifting buoy 53593

Last reported at 2016-Jul-27 21:00 UTC. Time now 2016-Jul-28 04:50 UTC.
Position S 16°29' E 109°29'.

Barometer 1014.7 mb
Water temperature 26.5 ° C

Date/timePositionNaut miles runAvg speedWind from/ knotsBaromVisibWave heightAir tempDewpointWater temp
2016-Jul-27 21:00S 16°29' E 109°29'1 0.4 1014.7 26.5
2016-Jul-27 19:00S 16°28' E 109°30'0 0.4 1014.8 26.5
2016-Jul-27 18:00S 16°28' E 109°30'1 0.1 1015.0 26.5
2016-Jul-27 13:00S 16°27' E 109°31'2 0.7 1015.7 26.5
2016-Jul-27 10:00S 16°27' E 109°33'1 0.3 1013.5 26.6
2016-Jul-27 07:00S 16°26' E 109°34'0 0.0 1012.6 26.7
2016-Jul-27 06:00S 16°26' E 109°34'2 0.2 1013.0 26.6
2016-Jul-26 21:00S 16°26' E 109°35'3 0.5 1013.6 26.6
2016-Jul-26 14:00S 16°27' E 109°39'1 0.3 1015.6 26.7
2016-Jul-26 10:00S 16°28' E 109°40'1 0.5 1013.8 26.7
2016-Jul-26 08:00S 16°28' E 109°39'3 0.3 1013.5 26.8
2016-Jul-25 22:00S 16°25' E 109°39'3 0.9 1014.5 26.7
2016-Jul-25 19:00S 16°24' E 109°42'2 0.8 1014.4 26.7
2016-Jul-25 17:00S 16°23' E 109°43'5 0.7 1014.7 26.7
2016-Jul-25 10:00S 16°23' E 109°49'5 5.3 1013.1 26.8
2016-Jul-25 09:00S 16°24' E 109°54'1 0.1 1012.6 26.8
2016-Jul-25 01:00S 16°25' E 109°55'1 0.7 1014.6 26.7
2016-Jul-24 23:00S 16°26' E 109°55'1 0.2 1014.0 26.7
2016-Jul-24 17:00S 16°27' E 109°56'2 0.3 1013.5 26.8
2016-Jul-24 11:00S 16°26' E 109°55'0 0.0 1012.1 26.8
2016-Jul-24 10:00S 16°26' E 109°55'1 1.0 1012.0 26.8
2016-Jul-24 09:00S 16°25' E 109°56'2 1.5 1011.5 26.8
2016-Jul-24 08:00S 16°23' E 109°56'4 0.6 1011.1 26.8
2016-Jul-24 01:00S 16°20' E 109°59'4 1.5 1013.2 26.8
2016-Jul-23 22:00S 16°18' E 110°03'6 1.5 1011.3 26.8
2016-Jul-23 18:00S 16°16' E 110°09'3 0.5 1011.9 26.8
2016-Jul-23 11:00S 16°16' E 110°13'2 0.4 1011.1 26.8
2016-Jul-23 07:00S 16°17' E 110°14'1 0.1 1010.1 26.8
2016-Jul-22 21:00S 16°16' E 110°14'1 0.9 1011.0 26.8
2016-Jul-22 20:00S 16°16' E 110°14'16 1.2 1011.1 26.8
2016-Jul-22 07:00S 16°00' E 110°19'0 0.0 1010.1 26.8
2016-Jul-22 06:00S 16°00' E 110°19'6 1.5 1010.8 26.8
2016-Jul-22 02:00S 15°57' E 110°23'0 0.0 1012.0 26.9
2016-Jul-22 00:00S 15°57' E 110°23'2 0.6 1012.0 26.9
2016-Jul-21 21:00S 15°55' E 110°24'5 0.6 1011.5 26.9
2016-Jul-21 13:00S 15°52' E 110°28'0 0.2 1012.5 27.1
2016-Jul-21 11:00S 15°52' E 110°28'2 0.8 1011.4 27.1
2016-Jul-21 09:00S 15°51' E 110°27'8 0.8 1010.8 27.1
2016-Jul-20 23:00S 15°46' E 110°20'1 1.3 1011.6 27.1
2016-Jul-20 22:00S 15°45' E 110°19'7 1.7 1011.2 27.1
2016-Jul-20 18:00S 15°40' E 110°15'0 0.1 1012.1 27.1
2016-Jul-20 14:00S 15°39' E 110°15'8 1.9 1012.0 27.2
2016-Jul-20 10:00S 15°36' E 110°08'0 0.0 1010.5 27.2
2016-Jul-20 09:00S 15°36' E 110°08'0 0.1 1010.5 27.2
2016-Jul-20 07:00S 15°36' E 110°08'9 1.0 1010.1 27.3
2016-Jul-19 22:00S 15°29' E 110°02'3 2.7 1010.4 27.2
2016-Jul-19 21:00S 15°28' E 109°60'0 0.0 1010.6 27.2
2016-Jul-19 19:00S 15°28' E 109°60'3 0.6 1011.1 27.2
2016-Jul-19 14:00S 15°27' E 109°57'2 0.8 1012.6 27.3
2016-Jul-19 11:00S 15°27' E 109°54'4 3.7 1011.2 27.3
2016-Jul-19 10:00S 15°26' E 109°51'0 0.0 1010.4 27.3
2016-Jul-19 09:00S 15°26' E 109°51'4 2.1 1009.9 27.3
2016-Jul-19 07:00S 15°25' E 109°47'0 0.0 1010.0 27.3
2016-Jul-19 05:00S 15°25' E 109°47'11 1.1 1010.9 27.3
2016-Jul-18 19:00S 15°22' E 109°35'0 0.1 1011.5 27.3
2016-Jul-18 14:00S 15°21' E 109°35'3 0.8 1013.5 27.4
2016-Jul-18 10:00S 15°19' E 109°33'1 0.3 1012.0 27.4
2016-Jul-18 06:00S 15°19' E 109°32'3 0.5 1012.1 27.4
2016-Jul-17 23:00S 15°18' E 109°28'0 0.1 1012.9 27.4
2016-Jul-17 22:00S 15°18' E 109°28'0 0.0 1012.8 27.4
2016-Jul-17 21:00S 15°18' E 109°28'   1012.9 27.4
Track history (hours):
 
Tides and Currents Weather Stations Pressure Air Temp Water Temp Dewpoint Dewpoint Depression Visibility Wind Speed Wind Dir Waves Ship Positions

Drifting buoy 53593

Last reported at 2016-Jul-27 21:00 UTC. Time now 2016-Jul-28 04:50 UTC.
Position S 16°29' E 109°29'.

Barometer 1014.7 mb
Water temperature 26.5 ° C

Date/timePositionNaut miles runAvg speedWind from/ knotsBaromVisibWave heightAir tempDewpointWater temp
2016-Jul-27 21:00S 16°29' E 109°29'1 0.4 1014.7 26.5
2016-Jul-27 19:00S 16°28' E 109°30'0 0.4 1014.8 26.5
2016-Jul-27 18:00S 16°28' E 109°30'1 0.1 1015.0 26.5
2016-Jul-27 13:00S 16°27' E 109°31'2 0.7 1015.7 26.5
2016-Jul-27 10:00S 16°27' E 109°33'1 0.3 1013.5 26.6
2016-Jul-27 07:00S 16°26' E 109°34'0 0.0 1012.6 26.7
2016-Jul-27 06:00S 16°26' E 109°34'2 0.2 1013.0 26.6
2016-Jul-26 21:00S 16°26' E 109°35'3 0.5 1013.6 26.6
2016-Jul-26 14:00S 16°27' E 109°39'1 0.3 1015.6 26.7
2016-Jul-26 10:00S 16°28' E 109°40'1 0.5 1013.8 26.7
2016-Jul-26 08:00S 16°28' E 109°39'3 0.3 1013.5 26.8
2016-Jul-25 22:00S 16°25' E 109°39'3 0.9 1014.5 26.7
2016-Jul-25 19:00S 16°24' E 109°42'2 0.8 1014.4 26.7
2016-Jul-25 17:00S 16°23' E 109°43'5 0.7 1014.7 26.7
2016-Jul-25 10:00S 16°23' E 109°49'5 5.3 1013.1 26.8
2016-Jul-25 09:00S 16°24' E 109°54'1 0.1 1012.6 26.8
2016-Jul-25 01:00S 16°25' E 109°55'1 0.7 1014.6 26.7
2016-Jul-24 23:00S 16°26' E 109°55'1 0.2 1014.0 26.7
2016-Jul-24 17:00S 16°27' E 109°56'2 0.3 1013.5 26.8
2016-Jul-24 11:00S 16°26' E 109°55'0 0.0 1012.1 26.8
2016-Jul-24 10:00S 16°26' E 109°55'1 1.0 1012.0 26.8
2016-Jul-24 09:00S 16°25' E 109°56'2 1.5 1011.5 26.8
2016-Jul-24 08:00S 16°23' E 109°56'4 0.6 1011.1 26.8
2016-Jul-24 01:00S 16°20' E 109°59'4 1.5 1013.2 26.8
2016-Jul-23 22:00S 16°18' E 110°03'6 1.5 1011.3 26.8
2016-Jul-23 18:00S 16°16' E 110°09'3 0.5 1011.9 26.8
2016-Jul-23 11:00S 16°16' E 110°13'2 0.4 1011.1 26.8
2016-Jul-23 07:00S 16°17' E 110°14'1 0.1 1010.1 26.8
2016-Jul-22 21:00S 16°16' E 110°14'1 0.9 1011.0 26.8
2016-Jul-22 20:00S 16°16' E 110°14'16 1.2 1011.1 26.8
2016-Jul-22 07:00S 16°00' E 110°19'0 0.0 1010.1 26.8
2016-Jul-22 06:00S 16°00' E 110°19'6 1.5 1010.8 26.8
2016-Jul-22 02:00S 15°57' E 110°23'0 0.0 1012.0 26.9
2016-Jul-22 00:00S 15°57' E 110°23'2 0.6 1012.0 26.9
2016-Jul-21 21:00S 15°55' E 110°24'5 0.6 1011.5 26.9
2016-Jul-21 13:00S 15°52' E 110°28'0 0.2 1012.5 27.1
2016-Jul-21 11:00S 15°52' E 110°28'2 0.8 1011.4 27.1
2016-Jul-21 09:00S 15°51' E 110°27'8 0.8 1010.8 27.1
2016-Jul-20 23:00S 15°46' E 110°20'1 1.3 1011.6 27.1
2016-Jul-20 22:00S 15°45' E 110°19'7 1.7 1011.2 27.1
2016-Jul-20 18:00S 15°40' E 110°15'0 0.1 1012.1 27.1
2016-Jul-20 14:00S 15°39' E 110°15'8 1.9 1012.0 27.2
2016-Jul-20 10:00S 15°36' E 110°08'0 0.0 1010.5 27.2
2016-Jul-20 09:00S 15°36' E 110°08'0 0.1 1010.5 27.2
2016-Jul-20 07:00S 15°36' E 110°08'9 1.0 1010.1 27.3
2016-Jul-19 22:00S 15°29' E 110°02'3 2.7 1010.4 27.2
2016-Jul-19 21:00S 15°28' E 109°60'0 0.0 1010.6 27.2
2016-Jul-19 19:00S 15°28' E 109°60'3 0.6 1011.1 27.2
2016-Jul-19 14:00S 15°27' E 109°57'2 0.8 1012.6 27.3
2016-Jul-19 11:00S 15°27' E 109°54'4 3.7 1011.2 27.3
2016-Jul-19 10:00S 15°26' E 109°51'0 0.0 1010.4 27.3
2016-Jul-19 09:00S 15°26' E 109°51'4 2.1 1009.9 27.3
2016-Jul-19 07:00S 15°25' E 109°47'0 0.0 1010.0 27.3
2016-Jul-19 05:00S 15°25' E 109°47'11 1.1 1010.9 27.3
2016-Jul-18 19:00S 15°22' E 109°35'0 0.1 1011.5 27.3
2016-Jul-18 14:00S 15°21' E 109°35'3 0.8 1013.5 27.4
2016-Jul-18 10:00S 15°19' E 109°33'1 0.3 1012.0 27.4
2016-Jul-18 06:00S 15°19' E 109°32'3 0.5 1012.1 27.4
2016-Jul-17 23:00S 15°18' E 109°28'0 0.1 1012.9 27.4
2016-Jul-17 22:00S 15°18' E 109°28'0 0.0 1012.8 27.4
2016-Jul-17 21:00S 15°18' E 109°28'   1012.9 27.4

Dump ship's entire track history